createdAt,value
2017-07-26T00:00:03.221Z,15.8
2017-07-26T00:05:03.045Z,15.8
2017-07-26T00:10:02.422Z,15.8
2017-07-26T00:15:02.890Z,16.0
2017-07-26T00:20:02.570Z,16.0
2017-07-26T00:25:03.039Z,16.0
2017-07-26T00:30:02.532Z,16.0
2017-07-26T00:35:03.034Z,16.0
2017-07-26T00:40:02.454Z,16.0
2017-07-26T00:45:02.940Z,16.0
2017-07-26T00:50:02.362Z,16.0
2017-07-26T00:55:02.812Z,16.0
2017-07-26T01:00:02.291Z,16.0
2017-07-26T01:05:02.795Z,16.0
2017-07-26T01:10:02.321Z,16.2
2017-07-26T01:15:02.621Z,16.0
2017-07-26T01:20:02.994Z,16.2
2017-07-26T01:25:02.284Z,16.2
2017-07-26T01:30:02.660Z,16.2
2017-07-26T01:35:03.018Z,16.2
2017-07-26T01:40:02.406Z,16.2
2017-07-26T01:45:02.882Z,16.2
2017-07-26T01:50:02.264Z,16.2
2017-07-26T01:55:02.707Z,16.2
2017-07-26T02:00:03.237Z,16.2
2017-07-26T02:05:02.703Z,16.2
2017-07-26T02:10:02.320Z,16.0
2017-07-26T02:15:02.616Z,16.0
2017-07-26T02:20:02.907Z,16.0
2017-07-26T02:25:03.251Z,16.0
2017-07-26T02:30:02.792Z,16.0
2017-07-26T02:35:02.319Z,15.8
2017-07-26T02:40:02.854Z,15.8
2017-07-26T02:45:02.333Z,15.6
2017-07-26T02:50:02.883Z,15.5
2017-07-26T02:55:02.505Z,15.3
2017-07-26T03:00:03.071Z,15.1
2017-07-26T03:05:02.513Z,15.1
2017-07-26T03:10:02.871Z,15.1
2017-07-26T03:15:02.301Z,15.0
2017-07-26T03:20:02.815Z,14.8
2017-07-26T03:25:02.339Z,14.8
2017-07-26T03:30:02.680Z,14.8
2017-07-26T03:35:03.173Z,14.8
2017-07-26T03:40:02.667Z,14.8
2017-07-26T03:45:03.113Z,14.8
2017-07-26T03:50:02.600Z,14.8
2017-07-26T03:55:03.109Z,14.6
2017-07-26T04:00:02.386Z,14.8
2017-07-26T04:05:02.879Z,14.8
2017-07-26T04:10:02.367Z,14.6
2017-07-26T04:15:02.730Z,14.5
2017-07-26T04:20:03.049Z,14.5
2017-07-26T04:25:02.384Z,14.3
2017-07-26T04:30:02.547Z,14.3
2017-07-26T04:35:03.062Z,14.3
2017-07-26T04:40:02.352Z,14.3
2017-07-26T04:45:02.677Z,14.3
2017-07-26T04:50:03.002Z,14.3
2017-07-26T04:55:02.302Z,14.5
2017-07-26T05:00:02.935Z,14.6
2017-07-26T05:05:02.425Z,14.6
2017-07-26T05:10:02.736Z,14.6
2017-07-26T05:15:03.246Z,14.8
2017-07-26T05:20:02.758Z,15.0
2017-07-26T05:25:03.062Z,15.0
2017-07-26T05:30:02.382Z,15.1
2017-07-26T05:35:02.901Z,15.5
2017-07-26T05:40:02.422Z,15.6
2017-07-26T05:45:02.780Z,15.6
2017-07-26T05:50:03.210Z,15.8
2017-07-26T05:55:02.466Z,15.8
2017-07-26T06:00:02.844Z,15.8
2017-07-26T06:05:03.112Z,16.2
2017-07-26T06:10:02.491Z,16.2
2017-07-26T06:15:02.989Z,16.2
2017-07-26T06:20:02.490Z,16.3
2017-07-26T06:25:02.969Z,16.7
2017-07-26T06:30:02.434Z,16.6
2017-07-26T06:35:02.930Z,16.7
2017-07-26T06:40:02.517Z,16.7
2017-07-26T06:45:02.826Z,17.2
2017-07-26T06:50:02.334Z,17.2
2017-07-26T06:55:02.873Z,17.3
2017-07-26T07:00:03.141Z,17.3
2017-07-26T07:05:02.834Z,17.7
2017-07-26T07:10:02.422Z,17.2
2017-07-26T07:15:02.913Z,17.7
2017-07-26T07:20:02.394Z,17.7
2017-07-26T07:25:02.820Z,17.8
2017-07-26T07:30:03.124Z,18.1
2017-07-26T07:35:02.581Z,18.6
2017-07-26T07:40:02.939Z,18.6
2017-07-26T07:45:02.420Z,18.2
2017-07-26T07:50:02.958Z,18.5
2017-07-26T07:55:02.304Z,19.2
2017-07-26T08:00:02.677Z,20.0
2017-07-26T08:05:03.200Z,20.6
2017-07-26T08:10:02.694Z,19.7
2017-07-26T08:15:03.126Z,18.7
2017-07-26T08:20:02.386Z,19.0
2017-07-26T08:25:02.666Z,19.0
2017-07-26T08:30:03.214Z,20.1
2017-07-26T08:35:02.687Z,21.3
2017-07-26T08:40:03.036Z,20.0
2017-07-26T08:45:02.358Z,19.5
2017-07-26T08:50:02.894Z,21.0
2017-07-26T08:55:03.209Z,20.1
2017-07-26T09:00:02.698Z,21.8
2017-07-26T09:05:02.984Z,20.7
2017-07-26T09:10:02.315Z,22.0
2017-07-26T09:15:02.856Z,21.3
2017-07-26T09:20:02.398Z,21.8
2017-07-26T09:25:02.781Z,21.7
2017-07-26T09:30:03.116Z,21.8
2017-07-26T09:35:02.405Z,21.7
2017-07-26T09:40:02.930Z,22.0
2017-07-26T09:45:02.448Z,22.6
2017-07-26T09:50:02.749Z,23.2
2017-07-26T09:55:03.222Z,22.1
2017-07-26T10:00:02.493Z,23.3
2017-07-26T10:05:02.884Z,22.7
2017-07-26T10:10:02.466Z,22.6
2017-07-26T10:15:02.752Z,22.1
2017-07-26T10:20:03.120Z,22.7
2017-07-26T10:25:02.488Z,23.7
2017-07-26T10:30:03.012Z,24.7
2017-07-26T10:35:02.364Z,24.7
2017-07-26T10:40:02.969Z,24.2
2017-07-26T10:45:02.456Z,25.1
2017-07-26T10:50:02.891Z,25.3
2017-07-26T10:55:03.163Z,23.8
2017-07-26T11:00:02.512Z,24.0
2017-07-26T11:05:02.965Z,22.6
2017-07-26T11:10:02.390Z,21.7
2017-07-26T11:15:02.702Z,21.5
2017-07-26T11:20:02.316Z,21.2
2017-07-26T11:25:02.639Z,21.6
2017-07-26T11:30:02.974Z,21.5
2017-07-26T11:35:02.380Z,22.0
2017-07-26T11:40:02.903Z,23.1
2017-07-26T11:45:03.213Z,23.8
2017-07-26T11:50:02.667Z,23.2
2017-07-26T11:55:03.014Z,22.7
2017-07-26T12:00:02.349Z,22.6
2017-07-26T12:05:02.686Z,23.1
2017-07-26T12:10:03.054Z,23.1
2017-07-26T12:15:02.469Z,24.0
2017-07-26T12:20:03.020Z,24.6
2017-07-26T12:25:02.512Z,23.7
2017-07-26T12:30:03.107Z,24.2
2017-07-26T12:35:02.533Z,23.6
2017-07-26T12:40:03.024Z,24.0
2017-07-26T12:45:02.465Z,23.3
2017-07-26T12:50:03.078Z,22.6
2017-07-26T12:55:02.538Z,23.0
2017-07-26T13:00:02.896Z,23.7
2017-07-26T13:05:02.491Z,23.2
2017-07-26T13:10:02.895Z,23.3
2017-07-26T13:15:03.238Z,22.6
2017-07-26T13:20:02.723Z,24.6
2017-07-26T13:25:03.213Z,25.0
2017-07-26T13:30:02.510Z,26.1
2017-07-26T13:35:02.974Z,27.2
2017-07-26T13:40:02.557Z,25.7
2017-07-26T13:45:03.024Z,25.3
2017-07-26T13:50:02.365Z,25.3
2017-07-26T13:55:02.931Z,24.2
2017-07-26T14:00:02.437Z,24.5
2017-07-26T14:05:02.750Z,24.0
2017-07-26T14:10:02.348Z,25.7
2017-07-26T14:15:02.730Z,26.7
2017-07-26T14:20:03.231Z,24.2
2017-07-26T14:25:02.482Z,24.2
2017-07-26T14:30:02.781Z,26.2
2017-07-26T14:35:03.057Z,25.6
2017-07-26T14:40:02.557Z,26.7
2017-07-26T14:45:03.042Z,25.6
2017-07-26T14:50:02.530Z,25.5
2017-07-26T14:55:02.945Z,26.1
2017-07-26T15:00:03.244Z,26.0
2017-07-26T15:05:02.560Z,26.1
2017-07-26T15:10:03.130Z,23.8
2017-07-26T15:15:02.437Z,25.6
2017-07-26T15:20:02.944Z,25.5
2017-07-26T15:25:02.277Z,24.2
2017-07-26T15:30:02.600Z,25.3
2017-07-26T15:35:03.149Z,25.5
2017-07-26T15:40:02.656Z,25.0
2017-07-26T15:45:03.172Z,26.2
2017-07-26T15:50:02.408Z,26.1
2017-07-26T15:55:02.911Z,25.8
2017-07-26T16:00:02.363Z,26.2
2017-07-26T16:05:02.837Z,25.6
2017-07-26T16:10:02.435Z,25.0
2017-07-26T16:15:02.760Z,23.7
2017-07-26T16:20:03.236Z,24.6
2017-07-26T16:25:02.711Z,24.8
2017-07-26T16:30:03.020Z,24.5
2017-07-26T16:35:02.489Z,23.6
2017-07-26T16:40:02.970Z,23.0
2017-07-26T16:45:02.550Z,22.7
2017-07-26T16:50:03.119Z,22.7
2017-07-26T16:55:02.597Z,23.2
2017-07-26T17:00:02.999Z,23.0
2017-07-26T17:05:02.529Z,23.0
2017-07-26T17:10:02.948Z,23.0
2017-07-26T17:15:02.384Z,23.2
2017-07-26T17:20:02.735Z,23.0
2017-07-26T17:25:03.216Z,22.7
2017-07-26T17:30:02.472Z,22.7
2017-07-26T17:35:02.895Z,22.6
2017-07-26T17:40:03.275Z,22.3
2017-07-26T17:45:02.688Z,22.2
2017-07-26T17:50:03.168Z,22.2
2017-07-26T17:55:02.595Z,22.0
2017-07-26T18:00:03.059Z,21.8
2017-07-26T18:05:02.325Z,21.8
2017-07-26T18:10:02.868Z,22.0
2017-07-26T18:15:02.302Z,23.2
2017-07-26T18:20:02.770Z,22.3
2017-07-26T18:25:03.048Z,22.2
2017-07-26T18:30:02.377Z,22.1
2017-07-26T18:35:02.817Z,22.3
2017-07-26T18:40:02.364Z,22.2
2017-07-26T18:45:02.854Z,22.0
2017-07-26T18:50:03.146Z,21.7
2017-07-26T18:55:02.470Z,21.6
2017-07-26T19:00:03.002Z,21.2
2017-07-26T19:05:02.475Z,21.2
2017-07-26T19:10:03.013Z,21.0
2017-07-26T19:15:02.541Z,21.0
2017-07-26T19:20:02.985Z,20.7
2017-07-26T19:25:02.475Z,20.7
2017-07-26T19:30:02.829Z,20.7
2017-07-26T19:35:03.154Z,20.8
2017-07-26T19:40:02.782Z,20.7
2017-07-26T19:45:02.415Z,20.7
2017-07-26T19:50:02.962Z,20.7
2017-07-26T19:55:02.499Z,20.7
2017-07-26T20:00:02.969Z,20.7
2017-07-26T20:05:02.408Z,20.7
2017-07-26T20:10:02.956Z,20.7
2017-07-26T20:15:03.264Z,20.6
2017-07-26T20:20:02.715Z,20.7
2017-07-26T20:25:03.048Z,20.7
2017-07-26T20:30:02.316Z,20.6
2017-07-26T20:35:02.933Z,20.6
2017-07-26T20:40:02.488Z,20.6
2017-07-26T20:45:02.843Z,20.6
2017-07-26T20:50:02.289Z,20.6
2017-07-26T20:55:02.827Z,20.6
2017-07-26T21:00:02.251Z,20.6
2017-07-26T21:05:02.610Z,20.6
2017-07-26T21:10:03.136Z,20.6
2017-07-26T21:15:02.481Z,20.6
2017-07-26T21:20:03.010Z,20.6
2017-07-26T21:25:02.414Z,20.6
2017-07-26T21:30:02.932Z,20.7
2017-07-26T21:35:03.240Z,20.6
2017-07-26T21:40:02.755Z,20.7
2017-07-26T21:45:03.075Z,20.7
2017-07-26T21:50:02.575Z,20.7
2017-07-26T21:55:02.903Z,20.7
2017-07-26T22:00:02.380Z,20.7
2017-07-26T22:05:02.763Z,20.2
2017-07-26T22:10:02.316Z,19.2
2017-07-26T22:15:02.685Z,18.7
2017-07-26T22:20:03.165Z,18.6
2017-07-26T22:25:02.406Z,18.2
2017-07-26T22:30:02.934Z,18.2
2017-07-26T22:35:02.462Z,18.1
2017-07-26T22:40:03.014Z,17.8
2017-07-26T22:45:02.320Z,17.8
2017-07-26T22:50:02.867Z,18.1
2017-07-26T22:55:02.323Z,18.1
2017-07-26T23:00:03.004Z,18.1
2017-07-26T23:05:03.035Z,18.2
2017-07-26T23:10:02.412Z,18.1
2017-07-26T23:15:02.869Z,18.2
2017-07-26T23:20:03.163Z,18.2
2017-07-26T23:25:02.433Z,18.2
2017-07-26T23:30:02.790Z,18.2
2017-07-26T23:35:03.078Z,18.2
2017-07-26T23:40:02.608Z,18.2
2017-07-26T23:45:03.106Z,18.2
2017-07-26T23:50:02.568Z,18.2
2017-07-26T23:55:03.070Z,18.2
